Route Details

Aircraft Information
Group: North America Fleet
Types: B738, B752, B762, B763
Route Data
Distance: 862nm
Duration: 2h 45m
Origin METAR: KJFK 010551Z 03010KT 10SM BKN036 OVC060 M01/M08 A3022 RMK AO2 SLP231 T10061083 10028 21006 56007
Dest. METAR: KLAL 010615Z AUTO 00000KT 10SM SCT055 17/16 A3018 RMK AO2 T01650158
Freight Data
(for Feb 1, 2023)
Load Factor:
34%
Manifested Cargo: 24,134lbs
Financial History
Total Freight: 45,201lbs
Average Load: 0lbs/flt
Fuel Used: 20,857lbs
Avg. Fuel Used: 0lbs/flt
Fuel Expense: $10,846
Avg. Fuel Expense: $0
Avg. Fuel Cost: $0/lbs
Total Gross Income: $115,263
Pilot Pay: $269
Total Expenses: $22,649
Total Revenue: $80,765
Average Revenue: $0

Capitol Logistics 359




KJFK
John F Kennedy International Airport
New York, New York
KLAL
Lakeland Linder Regional Airport
Lakeland, Florida

Activity Log

Date Flight Route Aircraft Duration
08/17/2022 CPX359 DCT LOKOE DCT YNKEE DCT MYRCA Q430 COPES Q75 TEUFL DCT KYYUU LUBBR3 B763 2h 29m